createdAt,value
2018-04-22T00:01:01.968Z,4.60
2018-04-22T00:03:03.000Z,4.80
2018-04-22T00:05:03.974Z,4.73
2018-04-22T00:07:04.950Z,4.40
2018-04-22T00:09:06.373Z,6.00
2018-04-22T00:11:07.303Z,5.53
2018-04-22T00:13:08.273Z,4.27
2018-04-22T00:15:09.270Z,3.57
2018-04-22T00:17:10.260Z,4.20
2018-04-22T00:19:11.270Z,3.80
2018-04-22T00:21:13.083Z,3.30
2018-04-22T00:23:14.010Z,3.43
2018-04-22T00:25:14.966Z,3.10
2018-04-22T00:27:15.953Z,3.33
2018-04-22T00:29:16.898Z,3.30
2018-04-22T00:31:17.858Z,3.10
2018-04-22T00:33:18.809Z,3.50
2018-04-22T00:35:19.810Z,3.90
2018-04-22T00:37:20.733Z,3.30
2018-04-22T00:39:22.727Z,3.40
2018-04-22T00:41:23.710Z,3.60
2018-04-22T00:43:24.670Z,3.60
2018-04-22T00:45:26.371Z,3.13
2018-04-22T00:47:27.366Z,4.10
2018-04-22T00:49:28.462Z,3.60
2018-04-22T00:51:29.435Z,3.43
2018-04-22T00:53:30.441Z,3.87
2018-04-22T00:55:31.389Z,3.27
2018-04-22T00:57:32.357Z,3.87
2018-04-22T00:59:33.298Z,3.90
2018-04-22T01:01:34.238Z,3.30
2018-04-22T01:03:35.178Z,3.60
2018-04-22T01:05:36.134Z,2.73
2018-04-22T01:07:37.130Z,2.90
2018-04-22T01:09:38.871Z,3.60
2018-04-22T01:11:39.851Z,3.00
2018-04-22T01:13:41.544Z,3.77
2018-04-22T01:15:42.501Z,4.13
2018-04-22T01:17:43.469Z,3.70
2018-04-22T01:19:44.451Z,3.47
2018-04-22T01:21:46.125Z,4.30
2018-04-22T01:23:47.875Z,3.60
2018-04-22T01:25:48.828Z,4.63
2018-04-22T01:27:49.889Z,4.40
2018-04-22T01:29:51.686Z,4.60
2018-04-22T01:31:53.381Z,4.63
2018-04-22T01:33:55.298Z,4.80
2018-04-22T01:35:56.257Z,5.00
2018-04-22T01:37:57.192Z,5.17
2018-04-22T01:39:58.206Z,4.93
2018-04-22T01:41:59.244Z,4.63
2018-04-22T01:44:00.243Z,4.60
2018-04-22T01:46:01.227Z,5.30
2018-04-22T01:48:02.161Z,5.00
2018-04-22T01:50:03.106Z,5.53
2018-04-22T01:52:04.114Z,4.70
2018-04-22T01:54:05.195Z,4.60
2018-04-22T01:56:06.154Z,4.10
2018-04-22T01:58:07.117Z,4.90
2018-04-22T02:00:08.101Z,4.80
2018-04-22T02:02:09.171Z,5.70
2018-04-22T02:04:10.110Z,4.60
2018-04-22T02:06:11.134Z,4.77
2018-04-22T02:08:12.113Z,4.50
2018-04-22T02:10:13.069Z,4.67
2018-04-22T02:12:14.063Z,5.20
2018-04-22T02:14:15.813Z,5.10
2018-04-22T02:16:17.565Z,4.53
2018-04-22T02:18:18.518Z,5.50
2018-04-22T02:20:19.435Z,5.03
2018-04-22T02:22:20.426Z,5.40
2018-04-22T02:24:22.167Z,4.97
2018-04-22T02:26:23.117Z,5.80
2018-04-22T02:28:24.058Z,5.80
2018-04-22T02:30:25.054Z,4.80
2018-04-22T02:32:25.982Z,5.17
2018-04-22T02:34:27.309Z,5.00
2018-04-22T02:36:28.257Z,5.90
2018-04-22T02:38:29.228Z,5.87
2018-04-22T02:40:30.940Z,6.20
2018-04-22T02:42:31.899Z,5.23
2018-04-22T02:44:33.830Z,6.00
2018-04-22T02:46:34.862Z,5.73
2018-04-22T02:48:36.029Z,5.57
2018-04-22T02:50:36.997Z,5.57
2018-04-22T02:52:37.998Z,6.40
2018-04-22T02:54:38.990Z,5.40
2018-04-22T02:56:39.946Z,5.63
2018-04-22T02:58:40.931Z,6.10
2018-04-22T03:00:41.897Z,6.07
2018-04-22T03:02:42.838Z,5.93
2018-04-22T03:04:43.768Z,6.03
2018-04-22T03:06:44.730Z,6.10
2018-04-22T03:08:45.689Z,5.43
2018-04-22T03:10:46.661Z,5.47
2018-04-22T03:12:47.619Z,6.20
2018-04-22T03:14:48.627Z,5.80
2018-04-22T03:16:50.386Z,6.50
2018-04-22T03:18:51.358Z,6.90
2018-04-22T03:20:52.317Z,6.30
2018-04-22T03:22:53.338Z,6.60
2018-04-22T03:24:54.263Z,6.00
2018-04-22T03:26:55.218Z,5.60
2018-04-22T03:28:56.195Z,5.93
2018-04-22T03:30:57.208Z,6.47
2018-04-22T03:32:58.221Z,5.70
2018-04-22T03:34:59.952Z,6.10
2018-04-22T03:37:00.958Z,5.47
2018-04-22T03:39:01.990Z,5.90
2018-04-22T03:41:03.734Z,6.27
2018-04-22T03:43:04.739Z,5.97
2018-04-22T03:45:05.735Z,6.17
2018-04-22T03:47:08.001Z,6.20
2018-04-22T03:49:09.552Z,6.00
2018-04-22T03:51:10.511Z,4.90
2018-04-22T03:53:11.512Z,6.37
2018-04-22T03:55:12.510Z,6.57
2018-04-22T03:57:14.289Z,5.37
2018-04-22T03:59:16.009Z,5.20
2018-04-22T04:01:16.950Z,5.47
2018-04-22T04:03:17.926Z,5.00
2018-04-22T04:05:18.860Z,5.07
2018-04-22T04:07:19.814Z,5.53
2018-04-22T04:09:21.501Z,5.23
2018-04-22T04:11:23.189Z,5.40
2018-04-22T04:13:24.166Z,4.93
2018-04-22T04:15:25.133Z,5.47
2018-04-22T04:17:26.870Z,5.30
2018-04-22T04:19:40.308Z,3.93
2018-04-22T04:21:53.763Z,4.43
2018-04-22T04:26:50.096Z,5.87
2018-04-22T04:28:51.051Z,4.97
2018-04-22T04:30:52.043Z,4.63
2018-04-22T04:32:53.021Z,4.83
2018-04-22T04:34:53.976Z,5.33
2018-04-22T04:36:55.678Z,6.30
2018-04-22T04:38:56.759Z,6.20
2018-04-22T04:40:57.704Z,6.83
2018-04-22T04:42:59.396Z,6.77
2018-04-22T04:45:00.332Z,6.80
2018-04-22T04:47:01.487Z,5.50
2018-04-22T04:49:02.482Z,5.07
2018-04-22T04:51:03.454Z,5.70
2018-04-22T04:53:05.112Z,5.67
2018-04-22T04:55:06.805Z,4.83
2018-04-22T04:57:07.767Z,5.10
2018-04-22T04:59:08.716Z,6.03
2018-04-22T05:01:09.648Z,6.10
2018-04-22T05:03:10.591Z,5.87
2018-04-22T05:05:11.517Z,5.40
2018-04-22T05:07:13.194Z,5.87
2018-04-22T05:09:14.115Z,6.23
2018-04-22T05:11:15.809Z,7.20
2018-04-22T05:13:16.762Z,7.80
2018-04-22T05:15:18.457Z,6.97
2018-04-22T05:17:19.389Z,7.70
2018-04-22T05:19:20.314Z,6.10
2018-04-22T05:21:21.270Z,5.93
2018-04-22T05:23:22.197Z,6.77
2018-04-22T05:25:23.128Z,6.87
2018-04-22T05:27:24.805Z,7.50
2018-04-22T05:29:25.725Z,7.20
2018-04-22T05:31:27.405Z,7.80
2018-04-22T05:33:28.357Z,7.07
2018-04-22T05:35:29.350Z,7.85
2018-04-22T05:37:30.297Z,6.70
2018-04-22T05:39:31.232Z,7.80
2018-04-22T05:41:32.161Z,7.30
2018-04-22T05:43:33.105Z,6.47
2018-04-22T05:45:34.030Z,6.70
2018-04-22T05:47:34.955Z,7.90
2018-04-22T05:49:36.649Z,7.17
2018-04-22T05:51:37.585Z,7.30
2018-04-22T05:53:38.506Z,6.10
2018-04-22T05:55:40.213Z,6.60
2018-04-22T05:57:41.164Z,7.50
2018-04-22T05:59:42.097Z,7.07
2018-04-22T06:01:43.029Z,7.30
2018-04-22T06:03:43.964Z,7.17
2018-04-22T06:05:44.944Z,6.30
2018-04-22T06:07:45.881Z,6.23
2018-04-22T06:09:46.813Z,7.00
2018-04-22T06:11:47.746Z,7.80
2018-04-22T06:13:48.678Z,7.70
2018-04-22T06:15:50.356Z,6.83
2018-04-22T06:17:51.307Z,6.70
2018-04-22T06:19:52.257Z,6.70
2018-04-22T06:21:53.185Z,7.97
2018-04-22T06:23:54.877Z,7.30
2018-04-22T06:25:55.845Z,7.90
2018-04-22T06:27:56.907Z,7.80
2018-04-22T06:29:57.863Z,8.23
2018-04-22T06:31:58.820Z,7.53
2018-04-22T06:34:00.519Z,7.70
2018-04-22T06:36:01.476Z,7.43
2018-04-22T06:38:02.452Z,7.07
2018-04-22T06:40:03.418Z,7.67
2018-04-22T06:42:05.116Z,7.60
2018-04-22T06:44:06.041Z,7.77
2018-04-22T06:46:07.747Z,7.50
2018-04-22T06:48:08.693Z,7.83
2018-04-22T06:50:09.634Z,7.73
2018-04-22T06:52:10.581Z,8.50
2018-04-22T06:54:11.547Z,7.40
2018-04-22T06:56:12.520Z,7.73
2018-04-22T06:58:14.209Z,6.80
2018-04-22T07:00:15.165Z,6.80
2018-04-22T07:02:16.115Z,7.90
2018-04-22T07:04:17.049Z,7.07
2018-04-22T07:06:17.981Z,7.03
2018-04-22T07:08:18.901Z,6.50
2018-04-22T07:10:19.850Z,6.90
2018-04-22T07:12:20.808Z,6.50
2018-04-22T07:14:22.523Z,6.67
2018-04-22T07:16:23.465Z,6.80
2018-04-22T07:18:24.405Z,6.83
2018-04-22T07:20:25.366Z,6.90
2018-04-22T07:22:26.325Z,7.20
2018-04-22T07:24:27.273Z,6.93
2018-04-22T07:26:28.250Z,7.20
2018-04-22T07:28:29.177Z,7.37
2018-04-22T07:30:30.125Z,8.07
2018-04-22T07:32:31.066Z,7.60
2018-04-22T07:34:32.022Z,7.70
2018-04-22T07:36:33.742Z,7.00
2018-04-22T07:38:34.700Z,7.57
2018-04-22T07:40:35.740Z,7.00
2018-04-22T07:42:37.093Z,7.20
2018-04-22T07:44:38.712Z,8.20
2018-04-22T07:46:40.424Z,6.70
2018-04-22T07:48:41.410Z,7.20
2018-04-22T07:50:43.086Z,7.17
2018-04-22T07:52:44.022Z,7.10
2018-04-22T07:54:45.753Z,7.70
2018-04-22T07:56:46.741Z,7.30
2018-04-22T07:58:47.687Z,7.73
2018-04-22T08:00:49.489Z,7.30
2018-04-22T08:02:50.477Z,8.37
2018-04-22T08:04:52.191Z,7.60
2018-04-22T08:06:53.126Z,7.77
2018-04-22T08:08:54.813Z,8.40
2018-04-22T08:10:55.837Z,7.60
2018-04-22T08:12:56.783Z,7.53
2018-04-22T08:14:58.489Z,7.47
2018-04-22T08:16:59.461Z,7.50
2018-04-22T08:19:01.172Z,7.87
2018-04-22T08:21:02.154Z,7.30
2018-04-22T08:23:03.174Z,8.10
2018-04-22T08:25:04.150Z,6.20
2018-04-22T08:27:05.121Z,6.97
2018-04-22T08:29:08.728Z,8.20
2018-04-22T08:31:10.452Z,8.20
2018-04-22T08:33:14.880Z,7.87
2018-04-22T08:35:15.804Z,6.80
2018-04-22T08:37:16.822Z,7.70
2018-04-22T08:39:17.797Z,8.33
2018-04-22T08:41:18.733Z,7.80
2018-04-22T08:43:20.242Z,8.03
2018-04-22T08:45:21.189Z,7.60
2018-04-22T08:47:22.901Z,8.33
2018-04-22T08:49:23.850Z,8.80
2018-04-22T08:51:24.852Z,9.20
2018-04-22T08:53:25.881Z,8.90
2018-04-22T08:55:26.842Z,9.20
2018-04-22T08:57:28.772Z,8.47
2018-04-22T08:59:29.709Z,8.90
2018-04-22T09:01:30.641Z,9.20
2018-04-22T09:03:31.585Z,9.27
2018-04-22T09:05:32.573Z,9.27
2018-04-22T09:07:33.510Z,10.67
2018-04-22T09:09:34.458Z,9.10
2018-04-22T09:11:35.519Z,9.73
2018-04-22T09:13:36.445Z,9.63
2018-04-22T09:15:37.411Z,10.87
2018-04-22T09:17:38.352Z,10.63
2018-04-22T09:19:39.314Z,11.03
2018-04-22T09:21:41.083Z,10.50
2018-04-22T09:23:42.785Z,10.83
2018-04-22T09:25:43.761Z,11.77
2018-04-22T09:27:44.727Z,11.97
2018-04-22T09:29:45.713Z,11.80
2018-04-22T09:31:46.682Z,12.53
2018-04-22T09:33:47.746Z,12.63
2018-04-22T09:35:48.725Z,12.80
2018-04-22T09:37:50.406Z,12.60
2018-04-22T09:39:51.363Z,12.03
2018-04-22T09:41:52.326Z,12.07
2018-04-22T09:43:53.274Z,12.40
2018-04-22T09:45:54.264Z,13.70
2018-04-22T09:47:55.203Z,12.27
2018-04-22T09:49:56.205Z,12.77
2018-04-22T09:51:57.364Z,13.17
2018-04-22T09:53:58.324Z,12.37
2018-04-22T09:55:59.298Z,12.13
2018-04-22T09:58:00.250Z,14.03
2018-04-22T10:00:01.193Z,13.67
2018-04-22T10:02:04.827Z,12.97
2018-04-22T10:04:09.725Z,13.20
2018-04-22T10:06:10.649Z,12.63
2018-04-22T10:08:11.586Z,12.70
2018-04-22T10:10:12.529Z,13.27
2018-04-22T10:12:13.510Z,13.03
2018-04-22T10:14:14.469Z,13.13
2018-04-22T10:16:15.413Z,14.87
2018-04-22T10:18:16.371Z,13.97
2018-04-22T10:20:18.073Z,13.43
2018-04-22T10:22:19.041Z,14.00
2018-04-22T10:24:20.026Z,14.90
2018-04-22T10:26:21.736Z,14.00
2018-04-22T10:28:23.095Z,13.90
2018-04-22T10:30:24.113Z,15.70
2018-04-22T10:32:25.069Z,14.73
2018-04-22T10:34:26.006Z,15.40
2018-04-22T10:36:26.978Z,17.10
2018-04-22T10:38:27.929Z,17.40
2018-04-22T10:40:28.895Z,17.67
2018-04-22T10:42:30.310Z,17.10
2018-04-22T10:44:31.414Z,18.50
2018-04-22T10:46:32.416Z,18.90
2018-04-22T10:48:33.421Z,18.50
2018-04-22T10:50:35.139Z,17.23
2018-04-22T10:52:36.094Z,18.60
2018-04-22T10:54:37.712Z,17.00
2018-04-22T10:56:38.920Z,18.70
2018-04-22T10:58:39.931Z,18.87
2018-04-22T11:00:40.884Z,16.63
2018-04-22T11:02:41.873Z,18.60
2018-04-22T11:04:42.882Z,18.80
2018-04-22T11:06:44.675Z,18.03
2018-04-22T11:08:45.730Z,20.13
2018-04-22T11:10:47.532Z,19.77
2018-04-22T11:12:48.538Z,19.50
2018-04-22T11:14:49.483Z,19.57
2018-04-22T11:16:50.451Z,20.70
2018-04-22T11:18:51.430Z,19.10
2018-04-22T11:20:52.408Z,20.87
2018-04-22T11:22:53.363Z,20.13
2018-04-22T11:24:55.333Z,19.20
2018-04-22T11:26:56.348Z,20.47
2018-04-22T11:28:57.321Z,19.00
2018-04-22T11:30:58.255Z,19.40
2018-04-22T11:32:59.193Z,19.60
2018-04-22T11:35:00.299Z,19.00
2018-04-22T11:37:01.430Z,20.83
2018-04-22T11:39:03.145Z,21.47
2018-04-22T11:41:04.882Z,20.13
2018-04-22T11:43:05.827Z,20.77
2018-04-22T11:45:06.804Z,19.30
2018-04-22T11:47:07.788Z,18.90
2018-04-22T11:49:08.845Z,17.33
2018-04-22T11:51:10.554Z,20.10
2018-04-22T11:53:11.760Z,20.03
2018-04-22T11:55:12.857Z,21.10
2018-04-22T11:57:13.846Z,19.77
2018-04-22T11:59:14.869Z,20.50
2018-04-22T12:01:16.003Z,21.37
2018-04-22T12:03:16.961Z,19.10
2018-04-22T12:05:17.964Z,20.70
2018-04-22T12:07:18.918Z,20.67
2018-04-22T12:09:19.857Z,19.70
2018-04-22T12:11:20.796Z,20.73
2018-04-22T12:13:22.493Z,21.57
2018-04-22T12:15:23.437Z,19.33
2018-04-22T12:17:24.393Z,18.43
2018-04-22T12:19:27.040Z,20.97
2018-04-22T12:21:28.750Z,19.70
2018-04-22T12:23:29.741Z,20.70
2018-04-22T12:25:31.425Z,20.47
2018-04-22T12:27:32.441Z,20.77
2018-04-22T12:29:33.420Z,19.20
2018-04-22T12:31:34.373Z,20.77
2018-04-22T12:33:35.322Z,20.87
2018-04-22T12:35:36.504Z,20.40
2018-04-22T12:37:37.539Z,20.97
2018-04-22T12:39:38.510Z,21.13
2018-04-22T12:41:39.506Z,20.40
2018-04-22T12:43:40.533Z,21.33
2018-04-22T12:45:42.202Z,20.57
2018-04-22T12:47:43.902Z,21.83
2018-04-22T12:49:44.890Z,20.70
2018-04-22T12:51:45.827Z,20.50
2018-04-22T12:53:46.862Z,21.20
2018-04-22T12:55:47.837Z,20.70
2018-04-22T12:57:48.789Z,22.20
2018-04-22T12:59:50.466Z,21.83
2018-04-22T13:01:51.413Z,20.30
2018-04-22T13:03:52.416Z,22.77
2018-04-22T13:05:53.382Z,21.40
2018-04-22T13:07:54.474Z,20.30
2018-04-22T13:09:55.401Z,21.90
2018-04-22T13:11:56.354Z,21.80
2018-04-22T13:13:57.399Z,21.33
2018-04-22T13:16:01.240Z,21.87
2018-04-22T13:18:03.074Z,20.90
2018-04-22T13:20:04.072Z,23.50
2018-04-22T13:22:05.031Z,21.40
2018-04-22T13:24:05.974Z,19.60
2018-04-22T13:26:06.911Z,21.23
2018-04-22T13:28:07.878Z,21.03
2018-04-22T13:30:08.885Z,22.57
2018-04-22T13:32:09.995Z,21.20
2018-04-22T13:34:10.962Z,23.30
2018-04-22T13:36:11.900Z,21.83
2018-04-22T13:38:14.069Z,22.13
2018-04-22T13:40:15.044Z,21.53
2018-04-22T13:42:16.162Z,23.90
2018-04-22T13:44:17.117Z,22.37
2018-04-22T13:46:18.058Z,21.17
2018-04-22T13:48:19.010Z,20.30
2018-04-22T13:50:20.018Z,23.33
2018-04-22T13:52:20.954Z,20.47
2018-04-22T13:54:22.874Z,20.63
2018-04-22T13:56:23.915Z,22.20
2018-04-22T13:58:24.872Z,21.07
2018-04-22T14:00:25.838Z,19.93
2018-04-22T14:02:26.806Z,22.00
2018-04-22T14:04:27.760Z,21.67
2018-04-22T14:06:28.686Z,21.27
2018-04-22T14:08:29.646Z,20.83
2018-04-22T14:10:31.347Z,19.30
2018-04-22T14:12:32.303Z,20.80
2018-04-22T14:14:33.236Z,18.90
2018-04-22T14:16:34.221Z,20.00
2018-04-22T14:18:35.212Z,19.67
2018-04-22T14:20:36.893Z,19.27
2018-04-22T14:22:37.887Z,20.97
2018-04-22T14:24:38.842Z,19.37
2018-04-22T14:26:44.297Z,21.40
2018-04-22T14:28:45.270Z,21.60
2018-04-22T14:30:46.445Z,20.20
2018-04-22T14:32:47.511Z,21.43
2018-04-22T14:34:48.971Z,18.33
2018-04-22T14:36:50.728Z,18.77
2018-04-22T14:38:51.653Z,20.80
2018-04-22T14:40:53.813Z,21.93
2018-04-22T14:42:54.787Z,18.83
2018-04-22T14:45:08.113Z,21.60
2018-04-22T14:47:09.101Z,19.80
2018-04-22T14:49:10.046Z,18.57
2018-04-22T14:51:11.995Z,21.13
2018-04-22T14:53:12.974Z,19.53
2018-04-22T14:55:13.942Z,19.93
2018-04-22T14:57:15.629Z,19.47
2018-04-22T14:59:16.595Z,21.00
2018-04-22T15:01:17.557Z,20.77
2018-04-22T15:03:18.493Z,20.60
2018-04-22T15:05:20.351Z,19.60
2018-04-22T15:07:21.306Z,18.90
2018-04-22T15:09:22.266Z,18.60
2018-04-22T15:11:23.242Z,17.40
2018-04-22T15:13:24.983Z,17.97
2018-04-22T15:15:25.982Z,19.30
2018-04-22T15:17:27.669Z,18.10
2018-04-22T15:19:28.607Z,16.63
2018-04-22T15:21:29.537Z,17.33
2018-04-22T15:23:30.462Z,18.13
2018-04-22T15:25:31.399Z,18.35
2018-04-22T15:27:32.320Z,19.20
2018-04-22T15:29:33.254Z,16.97
2018-04-22T15:31:34.355Z,18.73
2018-04-22T15:33:35.384Z,19.50
2018-04-22T15:35:36.471Z,17.80
2018-04-22T15:37:37.402Z,18.60
2018-04-22T15:39:47.138Z,18.63
2018-04-22T15:41:48.089Z,18.40
2018-04-22T15:43:51.081Z,18.90
2018-04-22T15:45:52.110Z,18.00
2018-04-22T15:47:54.261Z,17.90
2018-04-22T15:49:55.257Z,17.80
2018-04-22T15:51:56.201Z,16.73
2018-04-22T15:53:57.210Z,17.20
2018-04-22T15:55:59.635Z,18.90
2018-04-22T15:58:00.819Z,17.60
2018-04-22T16:00:01.829Z,17.27
2018-04-22T16:02:02.757Z,16.73
2018-04-22T16:04:04.442Z,17.30
2018-04-22T16:06:05.370Z,16.33
2018-04-22T16:08:07.042Z,18.70
2018-04-22T16:10:07.978Z,17.33
2018-04-22T16:12:09.649Z,17.02
2018-04-22T16:14:12.689Z,17.87
2018-04-22T16:16:14.538Z,17.27
2018-04-22T16:18:15.504Z,17.57
2018-04-22T16:20:16.430Z,18.37
2018-04-22T16:22:17.361Z,17.37
2018-04-22T16:24:18.300Z,17.73
2018-04-22T16:26:19.719Z,17.17
2018-04-22T16:28:20.697Z,15.97
2018-04-22T16:30:30.755Z,16.80
2018-04-22T16:32:32.668Z,17.70
2018-04-22T16:34:33.609Z,17.67
2018-04-22T16:36:34.526Z,17.50
2018-04-22T16:38:35.466Z,17.20
2018-04-22T16:40:36.421Z,18.03
2018-04-22T16:42:37.353Z,18.57
2018-04-22T16:44:38.673Z,18.93
2018-04-22T16:46:42.786Z,19.80
2018-04-22T16:48:44.352Z,18.80
2018-04-22T16:50:49.176Z,19.37
2018-04-22T16:52:50.201Z,18.90
2018-04-22T16:54:51.161Z,18.33
2018-04-22T16:56:54.945Z,18.90
2018-04-22T16:58:55.981Z,16.93
2018-04-22T17:03:06.896Z,17.70
2018-04-22T17:05:08.914Z,19.10
2018-04-22T17:07:09.893Z,20.20
2018-04-22T17:09:10.854Z,18.80
2018-04-22T17:11:11.981Z,19.07
2018-04-22T17:13:12.966Z,22.10
2018-04-22T17:15:13.922Z,21.03
2018-04-22T17:17:14.851Z,13.20
2018-04-22T17:19:15.810Z,12.87
2018-04-22T17:21:17.490Z,13.80
2018-04-22T17:23:18.421Z,11.63
2018-04-22T17:25:19.365Z,9.83
2018-04-22T17:27:20.296Z,7.47
2018-04-22T17:29:21.221Z,7.90
2018-04-22T17:31:22.157Z,8.43
2018-04-22T17:33:23.110Z,4.50
2018-04-22T17:35:26.933Z,3.77
2018-04-22T17:37:28.041Z,4.00
2018-04-22T17:39:29.025Z,4.00
2018-04-22T17:41:32.714Z,3.70
2018-04-22T17:43:34.611Z,3.70
2018-04-22T17:45:35.598Z,3.87
2018-04-22T17:47:36.554Z,3.57
2018-04-22T17:49:37.509Z,3.10
2018-04-22T17:51:38.469Z,3.60
2018-04-22T17:53:40.169Z,3.20
2018-04-22T17:55:41.858Z,3.03
2018-04-22T17:57:44.406Z,3.60
2018-04-22T17:59:46.174Z,2.57
2018-04-22T18:01:47.174Z,2.20
2018-04-22T18:03:48.177Z,2.33
2018-04-22T18:05:49.202Z,2.87
2018-04-22T18:08:08.086Z,2.67
2018-04-22T18:10:09.066Z,2.40
2018-04-22T18:12:10.005Z,2.80
2018-04-22T18:14:11.083Z,2.73
2018-04-22T18:16:12.838Z,2.00
2018-04-22T18:18:13.798Z,2.00
2018-04-22T18:20:14.754Z,2.30
2018-04-22T18:22:16.081Z,2.50
2018-04-22T18:24:31.458Z,1.83
2018-04-22T18:26:36.071Z,1.87
2018-04-22T18:28:37.116Z,1.87
2018-04-22T18:30:49.998Z,2.10
2018-04-22T18:32:51.178Z,2.00
2018-04-22T18:34:52.205Z,2.63
2018-04-22T18:36:56.123Z,1.83
2018-04-22T18:39:00.326Z,2.17
2018-04-22T18:41:02.110Z,2.27
2018-04-22T18:43:03.789Z,2.40
2018-04-22T18:45:05.530Z,2.30
2018-04-22T18:47:06.573Z,1.97
2018-04-22T18:49:09.266Z,1.73
2018-04-22T18:51:21.138Z,2.10
2018-04-22T18:53:22.254Z,1.50
2018-04-22T18:55:24.212Z,2.00
2018-04-22T18:57:25.224Z,1.87
2018-04-22T18:59:26.946Z,2.20
2018-04-22T19:01:39.027Z,2.00
2018-04-22T19:03:40.028Z,2.37
2018-04-22T19:05:41.782Z,2.40
2018-04-22T19:07:42.784Z,1.93
2018-04-22T19:09:43.750Z,2.33
2018-04-22T19:11:44.979Z,2.37
2018-04-22T19:13:45.962Z,2.43
2018-04-22T19:15:47.962Z,2.33
2018-04-22T19:17:48.979Z,2.10
2018-04-22T19:19:49.965Z,2.67
2018-04-22T19:21:50.958Z,2.40
2018-04-22T19:23:51.965Z,2.47
2018-04-22T19:25:53.680Z,2.30
2018-04-22T19:27:54.716Z,2.50
2018-04-22T19:29:55.861Z,2.90
2018-04-22T19:31:56.861Z,2.70
2018-04-22T19:33:57.854Z,2.47
2018-04-22T19:35:58.876Z,2.33
2018-04-22T19:37:59.868Z,2.30
2018-04-22T19:40:00.858Z,2.40
2018-04-22T19:42:01.885Z,2.30
2018-04-22T19:44:02.932Z,2.57
2018-04-22T19:46:04.771Z,2.50
2018-04-22T19:48:05.855Z,2.73
2018-04-22T19:50:06.987Z,2.30
2018-04-22T19:52:07.973Z,2.37
2018-04-22T19:54:12.436Z,1.97
2018-04-22T19:56:13.643Z,3.00
2018-04-22T19:58:15.361Z,2.40
2018-04-22T20:00:20.009Z,2.00
2018-04-22T20:02:21.155Z,2.20
2018-04-22T20:04:25.669Z,2.60
2018-04-22T20:06:26.643Z,1.93
2018-04-22T20:08:27.594Z,1.77
2018-04-22T20:10:28.562Z,2.13
2018-04-22T20:12:30.363Z,2.50
2018-04-22T20:14:31.382Z,1.93
2018-04-22T20:16:32.326Z,2.13
2018-04-22T20:18:33.282Z,2.47
2018-04-22T20:20:34.306Z,2.23
2018-04-22T20:22:35.322Z,2.40
2018-04-22T20:24:36.309Z,2.03
2018-04-22T20:26:37.276Z,2.10
2018-04-22T20:28:38.386Z,2.00
2018-04-22T20:30:39.497Z,2.30
2018-04-22T20:32:40.476Z,2.57
2018-04-22T20:34:42.346Z,2.00
2018-04-22T20:36:44.189Z,2.40
2018-04-22T20:38:45.217Z,2.20
2018-04-22T20:40:46.927Z,2.87
2018-04-22T20:42:48.785Z,4.20
2018-04-22T20:44:50.501Z,4.65
2018-04-22T20:46:51.454Z,5.53
2018-04-22T20:48:52.408Z,5.23
2018-04-22T20:50:53.360Z,4.90
2018-04-22T20:52:54.309Z,5.10
2018-04-22T20:54:55.513Z,4.00
2018-04-22T20:56:57.203Z,4.47
2018-04-22T20:58:58.222Z,4.83
2018-04-22T21:00:59.199Z,4.47
2018-04-22T21:03:00.155Z,4.70
2018-04-22T21:05:01.103Z,4.50
2018-04-22T21:07:02.071Z,4.50
2018-04-22T21:09:03.049Z,5.03
2018-04-22T21:11:04.012Z,5.10
2018-04-22T21:13:04.942Z,4.80
2018-04-22T21:15:05.887Z,5.27
2018-04-22T21:17:06.940Z,4.80
2018-04-22T21:19:07.914Z,5.87
2018-04-22T21:21:08.906Z,5.17
2018-04-22T21:23:10.603Z,4.97
2018-04-22T21:25:11.571Z,4.90
2018-04-22T21:27:12.517Z,5.20
2018-04-22T21:29:13.589Z,6.47
2018-04-22T21:31:14.575Z,5.80
2018-04-22T21:33:16.278Z,5.37
2018-04-22T21:35:17.223Z,4.80
2018-04-22T21:37:18.170Z,5.40
2018-04-22T21:39:19.098Z,5.03
2018-04-22T21:41:20.091Z,5.70
2018-04-22T21:43:21.066Z,5.40
2018-04-22T21:45:22.846Z,4.97
2018-04-22T21:47:23.829Z,5.33
2018-04-22T21:49:24.795Z,4.40
2018-04-22T21:51:25.743Z,5.13
2018-04-22T21:53:26.707Z,5.37
2018-04-22T21:55:28.479Z,4.93
2018-04-22T21:57:29.461Z,5.00
2018-04-22T21:59:30.423Z,5.63
2018-04-22T22:01:31.406Z,4.87
2018-04-22T22:03:32.342Z,4.93
2018-04-22T22:05:33.281Z,5.03
2018-04-22T22:07:34.726Z,4.00
2018-04-22T22:09:35.751Z,4.90
2018-04-22T22:11:36.726Z,4.90
2018-04-22T22:13:37.779Z,5.27
2018-04-22T22:15:38.754Z,4.87
2018-04-22T22:17:39.765Z,4.83
2018-04-22T22:19:40.779Z,5.00
2018-04-22T22:21:41.814Z,4.77
2018-04-22T22:23:42.807Z,4.73
2018-04-22T22:25:43.826Z,4.87
2018-04-22T22:27:44.815Z,4.60
2018-04-22T22:29:45.794Z,4.93
2018-04-22T22:31:46.829Z,4.37
2018-04-22T22:33:48.550Z,4.90
2018-04-22T22:35:49.496Z,5.10
2018-04-22T22:37:50.519Z,5.10
2018-04-22T22:39:51.482Z,4.90
2018-04-22T22:41:52.470Z,5.53
2018-04-22T22:43:54.198Z,4.83
2018-04-22T22:45:55.202Z,5.20
2018-04-22T22:47:56.161Z,4.87
2018-04-22T22:49:57.147Z,5.17
2018-04-22T22:51:58.205Z,5.13
2018-04-22T22:53:59.188Z,5.07
2018-04-22T22:56:00.180Z,4.53
2018-04-22T22:58:01.202Z,5.47
2018-04-22T23:00:02.231Z,4.93
2018-04-22T23:02:03.233Z,5.28
2018-04-22T23:04:04.223Z,5.43
2018-04-22T23:06:05.159Z,6.03
2018-04-22T23:08:06.878Z,5.03
2018-04-22T23:10:07.863Z,6.00
2018-04-22T23:12:08.870Z,4.90
2018-04-22T23:14:09.821Z,6.07
2018-04-22T23:16:10.828Z,5.53
2018-04-22T23:18:11.778Z,5.80
2018-04-22T23:20:12.735Z,5.50
2018-04-22T23:22:13.749Z,6.33
2018-04-22T23:24:15.473Z,6.13
2018-04-22T23:26:16.426Z,6.40
2018-04-22T23:28:17.418Z,7.30
2018-04-22T23:30:19.192Z,6.60
2018-04-22T23:32:20.214Z,6.63
2018-04-22T23:34:21.996Z,5.90
2018-04-22T23:36:22.956Z,6.83
2018-04-22T23:38:23.922Z,6.60
2018-04-22T23:40:24.916Z,6.30
2018-04-22T23:42:26.003Z,6.87
2018-04-22T23:44:26.943Z,7.23
2018-04-22T23:46:27.891Z,6.00
2018-04-22T23:48:28.900Z,7.40
2018-04-22T23:50:30.617Z,6.77
2018-04-22T23:52:31.627Z,7.10
2018-04-22T23:54:32.747Z,7.23
2018-04-22T23:56:34.475Z,6.80
2018-04-22T23:58:35.444Z,7.33
